Time;durP1;ratioP1;P1;durP2;ratioP2;P2;SDS_P1;SDS_P2;PMS_P1;PMS_P2;Temp;Humidity;BMP_temperature;BMP_pressure;BME280_temperature;BME280_humidity;BME280_pressure;Samples;Min_cycle;Max_cycle;Signal;HPM_P1;HPM_P2
2022/08/06 00:02:23;;;;;;;;;22.00;22.00;;;;;32.14;nan;98971.56;5133784;27;8849;-75
2022/08/06 00:04:59;;;;;;;;;20.50;20.50;;;;;32.18;nan;98970.25;5128457;27;8814;-75
2022/08/06 00:07:28;;;;;;;;;25.00;24.25;;;;;32.16;nan;98966.84;5128205;27;9579;-76
2022/08/06 00:10:13;;;;;;;;;20.50;20.25;;;;;32.16;nan;98966.84;5109948;27;8900;-74
2022/08/06 00:12:41;;;;;;;;;20.75;20.75;;;;;32.18;nan;98970.25;5128343;27;9602;-74
2022/08/06 00:15:11;;;;;;;;;19.75;19.75;;;;;32.10;nan;98964.78;5128472;27;8825;-74
2022/08/06 00:17:42;;;;;;;;;20.75;20.75;;;;;32.06;nan;98966.06;5076973;27;8833;-74
2022/08/06 00:20:16;;;;;;;;;20.75;20.25;;;;;32.09;nan;98970.31;5129124;27;8857;-75
2022/08/06 00:22:54;;;;;;;;;18.50;18.50;;;;;31.98;nan;98964.09;5130127;27;8933;-74
2022/08/06 00:25:22;;;;;;;;;17.50;17.50;;;;;31.92;nan;98967.41;5137171;27;8830;-75
2022/08/06 00:27:51;;;;;;;;;18.50;18.50;;;;;31.78;nan;98960.69;5148200;27;8853;-74
2022/08/06 00:30:20;;;;;;;;;19.00;18.50;;;;;31.67;nan;98967.13;5111400;27;8868;-74
2022/08/06 00:32:51;;;;;;;;;19.75;18.75;;;;;31.65;nan;98973.66;5141929;27;8927;-74
2022/08/06 00:35:22;;;;;;;;;19.75;18.75;;;;;31.64;nan;98972.81;5149092;27;8870;-74
2022/08/06 00:37:56;;;;;;;;;18.00;18.00;;;;;31.58;nan;98978.81;5149353;27;8831;-75
2022/08/06 00:40:29;;;;;;;;;22.00;22.00;;;;;31.58;nan;98975.25;5149094;27;8934;-74
2022/08/06 00:42:59;;;;;;;;;22.50;21.75;;;;;31.58;nan;98968.00;5096004;27;8836;-74
2022/08/06 00:45:29;;;;;;;;;21.00;21.00;;;;;31.59;nan;98974.25;5112129;27;8893;-75
2022/08/06 00:47:58;;;;;;;;;21.50;21.50;;;;;31.46;nan;98974.59;5151232;27;8851;-76
2022/08/06 00:50:33;;;;;;;;;21.00;19.50;;;;;31.50;nan;98973.31;5141015;27;9630;-74
2022/08/06 00:53:04;;;;;;;;;20.50;20.50;;;;;31.50;nan;98969.78;5134509;27;8838;-74
2022/08/06 00:55:34;;;;;;;;;23.50;23.50;;;;;31.56;nan;98972.72;5132588;27;8845;-74
2022/08/06 00:58:04;;;;;;;;;20.25;17.25;;;;;31.59;nan;98971.56;5131965;27;8887;-74
2022/08/06 01:00:33;;;;;;;;;18.00;18.00;;;;;31.63;nan;98963.03;5132383;27;8862;-74
2022/08/06 01:03:06;;;;;;;;;24.00;24.00;;;;;31.64;nan;98967.41;5141957;27;8855;-74
2022/08/06 01:05:36;;;;;;;;;22.50;22.50;;;;;31.64;nan;98967.41;5099976;27;8856;-75
2022/08/06 01:08:24;;;;;;;;;19.00;19.00;;;;;31.64;nan;98974.66;5151939;27;8851;-77
2022/08/06 01:10:53;;;;;;;;;23.25;20.00;;;;;31.60;nan;98976.81;5151769;27;8963;-75
2022/08/06 01:13:21;;;;;;;;;23.75;20.50;;;;;31.63;nan;98979.22;5132355;27;8841;-75
2022/08/06 01:16:08;;;;;;;;;21.00;21.00;;;;;31.62;nan;98979.34;5132196;27;8860;-76
2022/08/06 01:18:45;;;;;;;;;21.75;21.75;;;;;31.61;nan;98967.72;5113015;27;9819;-74
2022/08/06 01:21:44;;;;;;;;;21.25;21.00;;;;;31.69;nan;98972.38;5131738;27;8860;-75
2022/08/06 01:24:50;;;;;;;;;19.25;19.25;;;;;31.66;nan;98970.84;5142689;27;8839;-74
2022/08/06 01:27:37;;;;;;;;;22.00;20.00;;;;;31.60;nan;98978.66;5152262;27;8869;-74
2022/08/06 01:30:14;;;;;;;;;21.25;19.00;;;;;31.38;nan;98972.63;5133400;27;8859;-73
2022/08/06 01:32:54;;;;;;;;;23.00;17.50;;;;;31.40;nan;98978.72;5151862;27;8874;-74
2022/08/06 01:35:30;;;;;;;;;20.25;18.50;;;;;31.38;nan;98983.41;5142374;27;8849;-75
2022/08/06 01:38:23;;;;;;;;;18.50;16.75;;;;;31.34;nan;98984.69;5131117;27;8853;-75
2022/08/06 01:40:53;;;;;;;;;23.50;23.25;;;;;31.25;nan;98978.34;5150227;27;8827;-75
2022/08/06 01:43:25;;;;;;;;;19.75;19.75;;;;;31.28;nan;98979.88;5151823;27;9580;-74
2022/08/06 01:46:16;;;;;;;;;20.75;20.75;;;;;31.25;nan;98981.03;5139596;27;9622;-74
2022/08/06 01:48:46;;;;;;;;;18.50;18.50;;;;;31.15;nan;98977.50;5131150;27;8826;-74
2022/08/06 01:51:15;;;;;;;;;22.00;21.00;;;;;31.10;nan;98971.72;5130818;27;8891;-74
2022/08/06 01:54:08;;;;;;;;;18.25;18.25;;;;;31.12;nan;98979.69;5131360;27;8841;-74
2022/08/06 01:56:40;;;;;;;;;18.50;18.50;;;;;31.02;nan;98982.38;5131040;27;8877;-74
2022/08/06 01:59:31;;;;;;;;;24.50;22.25;;;;;31.03;nan;98976.84;5130798;27;8822;-75
2022/08/06 02:02:03;;;;;;;;;18.25;18.25;;;;;30.97;nan;98979.28;5131086;27;8941;-75
2022/08/06 02:04:38;;;;;;;;;21.25;21.25;;;;;30.99;nan;98978.13;5130960;27;8875;-74
2022/08/06 02:07:10;;;;;;;;;20.75;19.00;;;;;30.88;nan;98972.88;5131317;27;8838;-75
2022/08/06 02:10:01;;;;;;;;;20.50;20.50;;;;;30.75;nan;98978.56;5112355;27;8930;-74
2022/08/06 02:12:31;;;;;;;;;19.75;19.75;;;;;30.66;nan;98979.41;5127941;27;8827;-75
2022/08/06 02:15:05;;;;;;;;;23.00;21.00;;;;;30.65;nan;98980.44;5151730;27;8851;-74
2022/08/06 02:17:40;;;;;;;;;23.50;23.00;;;;;30.57;nan;98983.84;5097788;27;8851;-74
2022/08/06 02:20:34;;;;;;;;;15.25;15.25;;;;;30.65;nan;98981.28;5151603;27;8944;-74
2022/08/06 02:23:10;;;;;;;;;21.50;21.50;;;;;30.57;nan;98974.88;5151686;27;8839;-75
2022/08/06 02:25:41;;;;;;;;;22.75;20.75;;;;;30.45;nan;98974.19;5047645;27;8847;-75
2022/08/06 02:28:12;;;;;;;;;22.50;20.50;;;;;30.44;nan;98973.34;5096720;27;8863;-76
2022/08/06 02:30:57;;;;;;;;;22.00;21.75;;;;;30.47;nan;98973.09;5150969;27;8851;-74
2022/08/06 02:33:27;;;;;;;;;21.25;19.75;;;;;30.43;nan;98966.25;5150500;27;9614;-74
2022/08/06 02:36:07;;;;;;;;;18.50;18.50;;;;;30.54;nan;98978.72;5150678;27;8845;-74
2022/08/06 02:38:51;;;;;;;;;18.00;18.00;;;;;30.50;nan;98974.63;5150953;27;8871;-74
2022/08/06 02:41:29;;;;;;;;;21.00;21.00;;;;;30.54;nan;98972.50;5150709;27;8820;-73
2022/08/06 02:44:06;;;;;;;;;20.25;19.25;;;;;30.55;nan;98975.06;5150916;27;8843;-73
2022/08/06 02:46:41;;;;;;;;;18.75;18.75;;;;;30.50;nan;98977.31;5131041;27;8843;-73
2022/08/06 02:49:17;;;;;;;;;18.25;18.25;;;;;30.46;nan;98982.13;5150306;27;8827;-74
2022/08/06 02:51:55;;;;;;;;;19.75;18.50;;;;;30.48;nan;98984.69;5150577;27;8843;-75
2022/08/06 02:54:42;;;;;;;;;19.75;19.75;;;;;30.50;nan;98988.09;5150485;27;8882;-74
2022/08/06 02:57:18;;;;;;;;;21.75;21.25;;;;;30.55;nan;98984.97;5114208;27;8871;-75
2022/08/06 02:59:51;;;;;;;;;20.50;19.50;;;;;30.58;nan;98985.53;5150725;27;8843;-75
2022/08/06 03:02:27;;;;;;;;;21.75;21.00;;;;;30.59;nan;98984.53;5150323;27;8815;-74
2022/08/06 03:04:58;;;;;;;;;19.75;17.75;;;;;30.49;nan;98986.38;5095017;27;8871;-74
2022/08/06 03:07:30;;;;;;;;;20.25;20.00;;;;;30.40;nan;98985.41;5150346;27;8963;-74
2022/08/06 03:10:02;;;;;;;;;19.50;19.50;;;;;30.34;nan;98988.66;5149518;27;8891;-75
2022/08/06 03:12:32;;;;;;;;;21.50;21.50;;;;;30.31;nan;98984.38;5130150;27;8857;-75
2022/08/06 03:15:02;;;;;;;;;21.00;20.00;;;;;30.33;nan;98984.25;5129430;27;9562;-75
2022/08/06 03:17:41;;;;;;;;;18.75;18.75;;;;;30.33;nan;98976.19;5129769;27;8895;-75
2022/08/06 03:20:19;;;;;;;;;25.00;23.75;;;;;30.43;nan;98981.56;5138254;27;8831;-72
2022/08/06 03:22:56;;;;;;;;;32.75;30.75;;;;;30.40;nan;98973.78;5150347;27;8835;-75
2022/08/06 03:25:25;;;;;;;;;21.75;21.00;;;;;30.35;nan;98979.59;5096005;27;8831;-75
2022/08/06 03:27:55;;;;;;;;;24.50;24.00;;;;;30.44;nan;98980.59;5149536;27;9643;-73
2022/08/06 03:30:26;;;;;;;;;22.75;22.25;;;;;30.46;nan;98979.44;5149894;27;9639;-75
2022/08/06 03:33:06;;;;;;;;;28.00;26.75;;;;;30.44;nan;98976.06;5149935;27;8969;-73
2022/08/06 03:35:56;;;;;;;;;23.25;23.00;;;;;30.30;nan;98974.59;5135109;27;8825;-74
2022/08/06 03:38:27;;;;;;;;;23.50;23.25;;;;;30.27;nan;98976.72;5139383;27;9599;-74
2022/08/06 03:40:59;;;;;;;;;22.75;22.25;;;;;30.25;nan;98981.41;5149505;27;8823;-75
2022/08/06 03:43:30;;;;;;;;;21.75;21.75;;;;;30.26;nan;98983.91;5149708;27;8847;-74
2022/08/06 03:46:17;;;;;;;;;25.00;24.75;;;;;30.33;nan;98984.25;5149457;27;8982;-75
2022/08/06 03:48:48;;;;;;;;;25.50;24.25;;;;;30.36;nan;98981.28;5149750;27;8915;-73
2022/08/06 03:51:21;;;;;;;;;26.75;25.75;;;;;30.40;nan;98988.09;5149625;27;8878;-74
2022/08/06 03:54:11;;;;;;;;;23.50;22.50;;;;;30.44;nan;98985.97;5088333;28;8925;-75
2022/08/06 03:56:44;;;;;;;;;20.00;18.50;;;;;30.49;nan;98981.88;5086426;28;8851;-75
2022/08/06 03:59:15;;;;;;;;;26.00;26.00;;;;;30.58;nan;98982.84;5084992;28;8851;-74
2022/08/06 04:01:47;;;;;;;;;23.25;22.00;;;;;30.60;nan;98983.53;5084637;28;8873;-74
2022/08/06 04:04:20;;;;;;;;;25.25;25.25;;;;;30.66;nan;98987.50;5084587;28;8840;-74
2022/08/06 04:06:56;;;;;;;;;23.75;23.75;;;;;30.66;nan;98985.69;5101848;28;8882;-74
2022/08/06 04:09:26;;;;;;;;;50.75;40.75;;;;;30.64;nan;98989.50;5105146;28;9896;-74
2022/08/06 04:12:02;;;;;;;;;27.50;27.50;;;;;30.64;nan;98992.19;5101487;28;8872;-74
2022/08/06 04:14:52;;;;;;;;;24.75;23.50;;;;;30.63;nan;98988.66;5085011;28;8894;-74
2022/08/06 04:17:21;;;;;;;;;27.50;25.75;;;;;30.64;nan;98995.75;5084905;28;8972;-73
2022/08/06 04:19:52;;;;;;;;;7.25;5.50;;;;;30.68;nan;98997.16;5084825;28;8858;-73
2022/08/06 04:22:21;;;;;;;;;48.00;39.50;;;;;30.71;nan;99002.22;5087299;28;9613;-74
2022/08/06 04:25:11;;;;;;;;;33.00;29.75;;;;;30.82;nan;99011.16;5106310;27;8829;-73
2022/08/06 04:27:43;;;;;;;;;21.25;19.50;;;;;30.84;nan;99009.16;5130708;27;8833;-75
2022/08/06 04:30:19;;;;;;;;;21.00;21.00;;;;;30.95;nan;99013.59;5130164;27;8861;-74
2022/08/06 04:32:48;;;;;;;;;21.00;21.00;;;;;31.02;nan;99012.88;5130674;27;8880;-76
2022/08/06 04:35:30;;;;;;;;;22.50;21.75;;;;;31.19;nan;99016.66;5130759;27;9020;-75
2022/08/06 04:38:23;;;;;;;;;22.25;22.00;;;;;31.19;nan;99016.66;5111904;27;8853;-74
2022/08/06 04:40:54;;;;;;;;;24.00;23.50;;;;;31.17;nan;99013.22;5130801;27;8873;-76
2022/08/06 04:43:23;;;;;;;;;19.50;19.25;;;;;31.30;nan;99018.31;5112143;27;8850;-74
2022/08/06 04:46:05;;;;;;;;;21.50;21.50;;;;;31.30;nan;99018.31;5130075;27;8844;-75
2022/08/06 04:48:44;;;;;;;;;29.00;28.25;;;;;31.26;nan;99019.59;5134029;27;8865;-75
2022/08/06 04:51:15;;;;;;;;;23.00;19.50;;;;;31.24;nan;99021.59;5152559;27;8845;-75
2022/08/06 04:54:05;;;;;;;;;26.50;26.00;;;;;31.12;nan;99023.63;5128599;27;8835;-76
2022/08/06 04:56:34;;;;;;;;;27.75;26.00;;;;;30.88;nan;99029.44;5139569;27;8877;-76
2022/08/06 04:59:05;;;;;;;;;29.00;27.50;;;;;30.75;nan;99026.19;5156204;27;9051;-75
2022/08/06 05:01:35;;;;;;;;;28.00;24.75;;;;;30.77;nan;99018.81;5115268;27;8981;-76
2022/08/06 05:04:08;;;;;;;;;25.50;25.50;;;;;31.17;nan;99024.00;5131553;27;8853;-74
2022/08/06 05:06:50;;;;;;;;;29.25;27.25;;;;;31.33;nan;99019.88;5131212;27;8941;-74
2022/08/06 05:09:21;;;;;;;;;26.75;25.75;;;;;31.44;nan;99023.22;5131353;27;8846;-75
2022/08/06 05:11:57;;;;;;;;;24.50;23.00;;;;;31.41;nan;99023.50;5130516;27;8834;-74
2022/08/06 05:14:33;;;;;;;;;27.50;27.50;;;;;31.17;nan;99028.56;5130633;27;8860;-76
2022/08/06 05:17:04;;;;;;;;;22.75;20.75;;;;;31.09;nan;99029.28;5130304;27;8955;-76
2022/08/06 05:19:42;;;;;;;;;21.00;20.25;;;;;31.30;nan;99029.09;5150361;27;8858;-74
2022/08/06 05:22:16;;;;;;;;;22.50;22.25;;;;;31.53;nan;99039.53;5138420;27;8950;-76
2022/08/06 05:24:48;;;;;;;;;26.75;23.25;;;;;31.39;nan;99044.38;5129943;27;8846;-74
2022/08/06 05:27:31;;;;;;;;;21.25;21.25;;;;;31.27;nan;99037.47;5129941;27;8927;-75
2022/08/06 05:30:09;;;;;;;;;24.50;21.50;;;;;31.34;nan;99043.13;5128108;27;8839;-76
2022/08/06 05:32:44;;;;;;;;;22.50;21.50;;;;;31.68;nan;99038.06;5129135;27;8885;-75
2022/08/06 05:35:14;;;;;;;;;20.75;20.75;;;;;31.83;nan;99036.59;5131220;27;8841;-74
2022/08/06 05:37:46;;;;;;;;;22.50;21.75;;;;;31.92;nan;99037.53;5120156;27;8910;-74
2022/08/06 05:40:33;;;;;;;;;23.50;21.00;;;;;31.87;nan;99045.22;5131676;27;8899;-74
2022/08/06 05:43:19;;;;;;;;;25.00;23.25;;;;;31.88;nan;99048.78;5129887;27;9608;-76
2022/08/06 05:45:50;;;;;;;;;22.75;22.25;;;;;31.51;nan;99041.53;5130997;27;8865;-77
2022/08/06 05:48:21;;;;;;;;;20.50;20.50;;;;;31.51;nan;99047.75;5094318;27;9077;-81
2022/08/06 05:51:02;;;;;;;;;23.25;22.50;;;;;31.38;nan;99058.88;5114208;27;8919;-79
2022/08/06 05:53:41;;;;;;;;;30.00;28.25;;;;;30.84;nan;99060.31;5134431;27;8853;-77
2022/08/06 05:56:36;;;;;;;;;28.00;26.25;;;;;30.78;nan;99063.59;5145976;27;8865;-78
2022/08/06 05:59:11;;;;;;;;;24.75;23.50;;;;;30.77;nan;99062.72;5116747;27;8822;-79
2022/08/06 06:01:58;;;;;;;;;24.00;23.25;;;;;31.03;nan;99057.63;5112894;27;8925;-78
2022/08/06 06:04:28;;;;;;;;;25.00;25.00;;;;;31.04;nan;99051.28;5129949;27;8900;-77
2022/08/06 06:07:02;;;;;;;;;29.25;28.50;;;;;31.23;nan;99052.22;5112389;27;8844;-80
2022/08/06 06:09:33;;;;;;;;;27.00;27.00;;;;;30.97;nan;99062.78;5112203;27;8892;-79
2022/08/06 06:12:23;;;;;;;;;27.75;24.75;;;;;30.60;nan;99064.28;5107864;27;8837;-78
2022/08/06 06:15:03;;;;;;;;;21.25;21.25;;;;;30.78;nan;99074.38;5137201;27;8858;-78
2022/08/06 06:18:13;;;;;;;;;22.75;22.00;;;;;30.44;nan;99064.84;5120096;27;8848;-77
2022/08/06 06:21:10;;;;;;;;;21.25;20.50;;;;;30.65;nan;99075.47;5098820;27;8837;-78
2022/08/06 06:23:53;;;;;;;;;24.00;24.00;;;;;30.40;nan;99074.19;5133077;27;8874;-78
2022/08/06 06:26:34;;;;;;;;;25.25;25.25;;;;;30.49;nan;99077.88;5151761;27;8927;-80
2022/08/06 06:29:12;;;;;;;;;26.25;26.25;;;;;30.32;nan;99074.00;5149747;27;8831;-81
2022/08/06 06:31:56;;;;;;;;;23.75;23.25;;;;;30.34;nan;99073.88;5077801;27;8841;-74
2022/08/06 06:34:46;;;;;;;;;27.25;25.25;;;;;30.36;nan;99071.91;5129706;27;9690;-69
2022/08/06 06:37:25;;;;;;;;;24.00;24.00;;;;;30.95;nan;99070.16;5128217;27;8960;-70
2022/08/06 06:40:08;;;;;;;;;24.00;23.75;;;;;31.16;nan;99072.66;5129074;27;8890;-71
2022/08/06 06:42:47;;;;;;;;;23.25;21.50;;;;;31.52;nan;99072.91;5129173;27;8850;-74
2022/08/06 06:45:20;;;;;;;;;23.50;23.50;;;;;31.61;nan;99080.09;5127746;27;8862;-73
2022/08/06 06:48:12;;;;;;;;;26.50;26.50;;;;;31.20;nan;99074.06;5110909;27;8892;-75
2022/08/06 06:50:45;;;;;;;;;29.75;28.00;;;;;31.13;nan;99072.94;5081044;27;8874;-77
2022/08/06 06:53:17;;;;;;;;;23.50;22.75;;;;;30.76;nan;99074.50;5060763;27;9638;-74
2022/08/06 06:55:49;;;;;;;;;24.00;23.00;;;;;30.81;nan;99076.75;5129172;27;8877;-70
2022/08/06 06:58:32;;;;;;;;;27.50;26.00;;;;;31.43;nan;99072.72;5127207;27;8859;-73
2022/08/06 07:01:04;;;;;;;;;23.00;23.00;;;;;31.75;nan;99076.91;5094928;27;8855;-74
2022/08/06 07:03:42;;;;;;;;;23.00;22.25;;;;;32.20;nan;99070.75;5140873;27;9610;-77
2022/08/06 07:06:12;;;;;;;;;22.75;22.75;;;;;32.55;nan;99073.66;5137571;27;8939;-79
2022/08/06 07:09:01;;;;;;;;;23.50;23.00;;;;;32.66;nan;99073.47;5110622;27;8857;-76
2022/08/06 07:11:45;;;;;;;;;21.00;20.25;;;;;32.86;nan;99074.16;5065437;27;8846;-76
2022/08/06 07:14:35;;;;;;;;;22.00;19.50;;;;;33.37;nan;99067.16;5146186;27;8942;-75
2022/08/06 07:17:06;;;;;;;;;16.50;16.50;;;;;33.41;nan;99075.78;5131286;27;8831;-77
2022/08/06 07:19:57;;;;;;;;;20.00;18.75;;;;;33.57;nan;99080.44;5129919;27;8847;-75
2022/08/06 07:22:27;;;;;;;;;21.25;20.75;;;;;33.71;nan;99081.75;5114337;27;8935;-78
2022/08/06 07:25:01;;;;;;;;;21.50;21.00;;;;;33.28;nan;99078.91;5150304;27;8981;-77
2022/08/06 07:27:33;;;;;;;;;19.00;17.25;;;;;33.64;nan;99086.09;5150180;27;8865;-75
2022/08/06 07:30:08;;;;;;;;;17.75;17.00;;;;;34.09;nan;99079.56;5114124;27;9589;-76
2022/08/06 07:32:39;;;;;;;;;19.00;19.00;;;;;34.40;nan;99082.53;5142095;27;8928;-76
2022/08/06 07:35:11;;;;;;;;;17.00;17.00;;;;;34.65;nan;99080.75;5128398;27;9680;-76
2022/08/06 07:37:50;;;;;;;;;13.00;12.25;;;;;35.00;nan;99080.63;5093476;27;8845;-76
2022/08/06 07:40:24;;;;;;;;;16.75;16.75;;;;;35.21;nan;99082.84;5075577;27;8932;-77
2022/08/06 07:43:02;;;;;;;;;17.50;16.25;;;;;35.44;nan;99072.97;5128924;27;8845;-75
2022/08/06 07:45:34;;;;;;;;;20.00;20.00;;;;;35.64;nan;99075.31;5110281;27;8849;-77
2022/08/06 07:48:09;;;;;;;;;17.00;16.50;;;;;35.81;nan;99084.28;5077440;27;8857;-76
2022/08/06 07:50:40;;;;;;;;;19.50;19.25;;;;;35.90;nan;99078.63;5133075;27;8835;-77
2022/08/06 07:53:11;;;;;;;;;19.75;19.75;;;;;36.08;nan;99078.38;5149415;27;8843;-77
2022/08/06 07:55:40;;;;;;;;;16.75;16.75;;;;;36.07;nan;99086.69;5129826;27;8845;-75
2022/08/06 07:58:10;;;;;;;;;24.75;23.25;;;;;36.26;nan;99083.59;5110534;27;8833;-75
2022/08/06 08:00:43;;;;;;;;;21.75;20.25;;;;;36.43;nan;99089.78;5128527;27;8877;-74
2022/08/06 08:06:26;;;;;;;;;22.50;21.50;;;;;36.74;nan;99085.38;5127832;27;8853;-76
2022/08/06 08:08:59;;;;;;;;;22.25;22.00;;;;;36.75;nan;99087.03;5099858;27;8916;-75
2022/08/06 08:11:29;;;;;;;;;18.25;18.00;;;;;36.65;nan;99087.25;5127893;27;9094;-74
2022/08/06 08:14:08;;;;;;;;;21.50;21.25;;;;;36.71;nan;99092.00;5083768;27;9055;-76
2022/08/06 08:16:40;;;;;;;;;29.50;28.75;;;;;36.68;nan;99095.09;5109783;27;8860;-75
2022/08/06 08:19:30;;;;;;;;;22.75;21.75;;;;;36.70;nan;99090.31;5108336;27;8845;-75
2022/08/06 08:22:05;;;;;;;;;18.50;18.50;;;;;36.68;nan;99092.38;5129291;27;8854;-76
2022/08/06 08:24:35;;;;;;;;;20.00;17.25;;;;;36.66;nan;99102.56;5131492;27;8858;-76
2022/08/06 08:27:08;;;;;;;;;17.00;16.75;;;;;36.83;nan;99100.59;5129859;27;8855;-74
2022/08/06 08:29:42;;;;;;;;;17.75;17.75;;;;;36.86;nan;99102.94;5130315;27;8850;-75
2022/08/06 08:32:23;;;;;;;;;17.50;17.00;;;;;36.93;nan;99097.63;5072174;27;8856;-75
2022/08/06 08:34:52;;;;;;;;;17.00;17.00;;;;;37.07;nan;99102.25;5118717;27;8868;-78
2022/08/06 08:37:21;;;;;;;;;17.50;17.50;;;;;37.22;nan;99103.19;5109244;27;8865;-74
2022/08/06 08:39:50;;;;;;;;;16.50;16.50;;;;;37.19;nan;99102.72;5122123;27;8873;-75
2022/08/06 08:42:29;;;;;;;;;19.00;19.00;;;;;37.30;nan;99107.69;5129022;27;8850;-77
2022/08/06 08:45:00;;;;;;;;;20.25;20.25;;;;;37.24;nan;99109.28;5127469;27;8845;-75
2022/08/06 08:47:32;;;;;;;;;22.25;22.25;;;;;37.17;nan;99108.31;5127074;27;8857;-76
2022/08/06 08:50:15;;;;;;;;;17.75;17.75;;;;;37.38;nan;99107.63;5124857;27;8849;-75
2022/08/06 08:52:49;;;;;;;;;16.50;16.50;;;;;37.41;nan;99112.69;5121379;27;8845;-77
2022/08/06 08:55:25;;;;;;;;;19.75;17.75;;;;;37.56;nan;99109.13;5107687;27;8846;-75
2022/08/06 08:58:16;;;;;;;;;18.50;18.50;;;;;37.56;nan;99104.53;5093120;27;8868;-76
2022/08/06 09:01:08;;;;;;;;;16.25;16.25;;;;;37.64;nan;99099.06;5124716;27;8854;-75
2022/08/06 09:03:40;;;;;;;;;20.50;19.75;;;;;37.70;nan;99099.34;5124770;27;8830;-75
2022/08/06 09:06:15;;;;;;;;;16.75;16.00;;;;;37.57;nan;99105.41;5106519;27;8849;-76
2022/08/06 09:09:02;;;;;;;;;16.75;16.75;;;;;37.66;nan;99107.03;5065242;28;8943;-74
2022/08/06 09:11:33;;;;;;;;;19.25;19.25;;;;;37.67;nan;99103.25;5067374;28;8877;-77
2022/08/06 09:14:22;;;;;;;;;17.25;17.25;;;;;37.54;nan;99109.31;5052001;28;8875;-76
2022/08/06 09:17:01;;;;;;;;;20.00;17.25;;;;;37.68;nan;99098.66;5042263;28;8828;-76
2022/08/06 09:19:32;;;;;;;;;18.00;17.75;;;;;37.68;nan;99104.97;5014664;28;8833;-78
2022/08/06 09:22:05;;;;;;;;;14.50;13.75;;;;;37.69;nan;99103.91;5046029;28;8939;-75
2022/08/06 09:24:34;;;;;;;;;15.00;15.00;;;;;37.51;nan;99090.66;5063795;28;8862;-74
2022/08/06 09:27:05;;;;;;;;;18.75;18.75;;;;;37.52;nan;99095.06;5059662;28;8846;-76
2022/08/06 09:29:56;;;;;;;;;14.75;14.75;;;;;37.76;nan;99099.44;5050513;28;9595;-74
2022/08/06 09:32:39;;;;;;;;;14.75;14.50;;;;;37.68;nan;99098.66;5018092;28;8846;-73
2022/08/06 09:35:26;;;;;;;;;15.50;14.75;;;;;37.75;nan;99105.91;5048809;28;8943;-75
2022/08/06 09:38:13;;;;;;;;;15.00;14.00;;;;;37.74;nan;99111.53;5031899;28;8991;-76
2022/08/06 09:41:09;;;;;;;;;17.25;16.50;;;;;38.01;nan;99105.41;5047096;28;8860;-76
2022/08/06 09:43:43;;;;;;;;;15.00;15.00;;;;;37.57;nan;99095.34;5038318;28;8881;-76
2022/08/06 09:46:40;;;;;;;;;15.25;15.25;;;;;37.58;nan;99097.06;5088169;28;8841;-75
2022/08/06 09:49:11;;;;;;;;;23.50;20.75;;;;;37.32;nan;99102.06;5075093;27;8861;-75
2022/08/06 09:52:15;;;;;;;;;12.75;12.75;;;;;37.64;nan;99093.59;5112841;27;8841;-76
2022/08/06 09:54:45;;;;;;;;;15.00;15.00;;;;;37.48;nan;99095.63;5131212;27;8883;-74
2022/08/06 09:57:22;;;;;;;;;16.50;15.25;;;;;37.58;nan;99096.19;5069265;27;9646;-75
2022/08/06 10:00:02;;;;;;;;;11.50;11.50;;;;;37.63;nan;99093.78;5151187;27;8835;-75
2022/08/06 10:02:38;;;;;;;;;12.75;12.75;;;;;37.73;nan;99091.63;5119097;27;8831;-75
2022/08/06 10:05:10;;;;;;;;;16.75;16.25;;;;;37.78;nan;99097.34;5152607;27;8851;-75
2022/08/06 10:08:03;;;;;;;;;13.75;13.25;;;;;38.01;nan;99101.84;5152116;27;8854;-74
2022/08/06 10:10:53;;;;;;;;;14.25;13.25;;;;;37.78;nan;99094.63;5151260;27;8844;-73
2022/08/06 10:13:24;;;;;;;;;16.00;15.50;;;;;37.49;nan;99095.44;5046545;28;8838;-75
2022/08/06 10:15:55;;;;;;;;;12.75;12.75;;;;;37.70;nan;99094.75;5045381;28;8980;-76
2022/08/06 10:18:35;;;;;;;;;12.00;12.00;;;;;37.89;nan;99096.06;5046845;28;8872;-74
2022/08/06 10:21:26;;;;;;;;;14.50;13.25;;;;;37.89;nan;99098.78;5030196;28;8852;-75
2022/08/06 10:24:06;;;;;;;;;13.75;13.25;;;;;37.76;nan;99098.59;5027172;28;8864;-74
2022/08/06 10:26:35;;;;;;;;;13.00;13.00;;;;;38.01;nan;99097.25;5027212;28;8860;-73
2022/08/06 10:29:05;;;;;;;;;11.25;11.25;;;;;37.90;nan;99099.59;5027193;28;8860;-75
2022/08/06 10:31:36;;;;;;;;;12.00;12.00;;;;;37.78;nan;99093.81;5026520;28;8860;-74
2022/08/06 10:34:10;;;;;;;;;12.00;11.50;;;;;37.96;nan;99093.41;5039638;28;8975;-75
2022/08/06 10:36:44;;;;;;;;;15.00;12.25;;;;;38.03;nan;99088.88;5046740;28;8857;-75
2022/08/06 10:39:15;;;;;;;;;8.75;8.75;;;;;37.90;nan;99089.56;5030361;28;8853;-75
2022/08/06 10:42:05;;;;;;;;;11.00;11.00;;;;;37.98;nan;99084.03;5026073;28;8851;-75
2022/08/06 10:44:46;;;;;;;;;14.75;14.00;;;;;38.10;nan;99078.97;5026496;28;8998;-75
2022/08/06 10:47:15;;;;;;;;;10.75;10.75;;;;;38.14;nan;99085.72;5026501;28;8890;-76
2022/08/06 10:49:46;;;;;;;;;10.50;10.50;;;;;38.34;nan;99076.94;5043302;28;9879;-76
2022/08/06 10:52:36;;;;;;;;;10.00;9.00;;;;;38.44;nan;99082.94;5103550;28;9559;-75
2022/08/06 10:55:08;;;;;;;;;9.75;9.75;;;;;38.50;nan;99084.03;5106574;28;8856;-74
2022/08/06 10:57:39;;;;;;;;;7.75;7.75;;;;;38.54;nan;99078.03;5106962;28;8855;-73
2022/08/06 11:00:10;;;;;;;;;9.75;9.00;;;;;38.59;nan;99072.84;5089863;28;8882;-73
2022/08/06 11:02:50;;;;;;;;;9.25;9.00;;;;;38.88;nan;99083.81;5073474;28;8924;-76
2022/08/06 11:05:29;;;;;;;;;10.75;10.00;;;;;39.18;nan;99074.44;5105272;27;8844;-75
2022/08/06 11:08:33;;;;;;;;;8.75;8.75;;;;;39.32;nan;99069.09;5106873;28;10033;-75
2022/08/06 11:11:27;;;;;;;;;8.50;8.50;;;;;39.65;nan;99071.25;5106652;28;8848;-75
2022/08/06 11:14:02;;;;;;;;;10.50;9.00;;;;;39.11;nan;99067.25;5124361;27;8928;-77
2022/08/06 11:16:32;;;;;;;;;8.75;8.75;;;;;39.09;nan;99064.72;5129612;27;8915;-77
2022/08/06 11:19:05;;;;;;;;;10.00;10.00;;;;;38.85;nan;99057.81;5111879;27;8837;-80
2022/08/06 11:21:42;;;;;;;;;6.75;6.75;;;;;39.25;nan;99062.78;5112140;27;8853;-80
2022/08/06 11:24:27;;;;;;;;;11.00;10.00;;;;;39.52;nan;99059.19;5130486;27;8861;-82
2022/08/06 11:26:57;;;;;;;;;8.25;8.25;;;;;39.72;nan;99047.56;5094528;27;8854;-81
2022/08/06 11:29:30;;;;;;;;;8.00;8.00;;;;;39.84;nan;99054.13;5094959;27;8825;-80
2022/08/06 11:32:45;;;;;;;;;8.00;8.00;;;;;39.21;nan;99053.28;5111275;27;9618;-76
2022/08/06 11:35:40;;;;;;;;;9.50;9.50;;;;;38.12;nan;99044.22;5111426;27;8852;-74
2022/08/06 11:38:58;;;;;;;;;9.25;9.25;;;;;37.93;nan;99048.34;5081595;27;9558;-77
2022/08/06 11:41:59;;;;;;;;;10.25;10.25;;;;;38.40;nan;99041.59;5084968;27;8866;-78
2022/08/06 11:44:30;;;;;;;;;8.00;8.00;;;;;39.07;nan;99047.72;5129479;27;8965;-78
2022/08/06 11:47:30;;;;;;;;;5.50;5.50;;;;;39.48;nan;99037.97;5129926;27;8834;-79
2022/08/06 11:50:23;;;;;;;;;7.25;7.25;;;;;40.06;nan;99034.91;5086564;28;8855;-81
2022/08/06 11:52:55;;;;;;;;;9.25;7.00;;;;;40.34;nan;99027.47;5086083;28;8875;-80
2022/08/06 11:55:24;;;;;;;;;6.75;6.75;;;;;40.63;nan;99025.41;5034962;28;9676;-80
2022/08/06 11:58:22;;;;;;;;;8.25;8.25;;;;;41.05;nan;99036.19;5069006;28;8841;-79
2022/08/06 12:00:59;;;;;;;;;7.75;6.75;;;;;41.48;nan;99028.34;5085608;28;8906;-81
2022/08/06 12:03:38;;;;;;;;;10.50;10.50;;;;;41.81;nan;99029.34;5087336;28;8842;-81
2022/08/06 12:06:23;;;;;;;;;10.00;9.75;;;;;42.20;nan;99031.06;5089676;28;9589;-81
2022/08/06 12:09:09;;;;;;;;;10.50;10.50;;;;;42.53;nan;99035.53;5123890;27;8826;-79
2022/08/06 12:11:44;;;;;;;;;31.75;30.00;;;;;42.80;nan;99032.59;5111605;27;8837;-79
2022/08/06 12:14:41;;;;;;;;;12.25;11.75;;;;;43.40;nan;99026.59;5094235;27;8861;-80
2022/08/06 12:17:15;;;;;;;;;8.25;8.25;;;;;43.49;nan;99018.91;5129528;27;8877;-79
2022/08/06 12:19:54;;;;;;;;;7.75;7.75;;;;;43.94;nan;99018.63;5113555;27;8826;-80
2022/08/06 12:22:33;;;;;;;;;6.25;6.25;;;;;43.96;nan;99009.06;5110713;27;8939;-78
2022/08/06 12:25:06;;;;;;;;;7.25;7.25;;;;;44.12;nan;99015.00;5094146;27;8845;-78
2022/08/06 12:27:39;;;;;;;;;7.00;7.00;;;;;44.33;nan;99013.66;5093935;27;8841;-80
2022/08/06 12:30:19;;;;;;;;;7.25;7.25;;;;;44.67;nan;99014.88;5146808;27;8978;-80
2022/08/06 12:33:06;;;;;;;;;6.50;6.50;;;;;45.30;nan;99002.38;5152943;27;8847;-80
2022/08/06 12:35:51;;;;;;;;;6.25;5.75;;;;;45.43;nan;99001.28;5145708;27;9631;-80
2022/08/06 12:38:22;;;;;;;;;7.25;7.25;;;;;45.56;nan;98999.31;5077066;27;8938;-78